Spirit of New Zealand — ZMSV — position and weather

sailwx.info

Track history (hours):
 
Tides and Currents Weather Stations Pressure Air Temp Water Temp Dewpoint Dewpoint Depression Visibility Wind Speed Wind Dir Waves Ship Positions

Spirit of New Zealand

Last reported at 2017-Jan-24 18:32 UTC. Time now 2017-Jan-24 19:23 UTC.
Position S 36°30' E 174°44'.

Length 45 m; draft 4.1 m.

Type: Passenger vessel. MMSI: 512201000.

Date/timePositionNaut miles runAvg speedWind from/ knotsBaromVisibWave heightAir tempDewpointWater temp
2017-Jan-24 18:32S 36°30' E 174°44'0 0.0
2017-Jan-24 17:26S 36°30' E 174°44'0 0.0
2017-Jan-24 16:26S 36°30' E 174°44'0 0.0
2017-Jan-24 15:32S 36°30' E 174°44'0 0.0
2017-Jan-24 14:20S 36°30' E 174°44'0 0.0
2017-Jan-24 13:32S 36°30' E 174°44'0 0.0
2017-Jan-24 12:32S 36°30' E 174°44'0 0.0
2017-Jan-24 06:20S 36°30' E 174°44'0 0.0
2017-Jan-24 05:20S 36°30' E 174°44'0 0.1
2017-Jan-24 04:32S 36°30' E 174°44'0 0.0
2017-Jan-24 03:32S 36°30' E 174°44'0 0.0
2017-Jan-24 02:32S 36°30' E 174°44'0 0.0
2017-Jan-24 01:26S 36°30' E 174°44'0 0.1
2017-Jan-24 00:33S 36°30' E 174°44'3 3.0
2017-Jan-23 23:33S 36°29' E 174°47'1 1.0
2017-Jan-23 22:33S 36°29' E 174°46'3 0.2
2017-Jan-23 03:17S 36°26' E 174°47'4 5.8
2017-Jan-23 02:33S 36°30' E 174°49'8 7.5
2017-Jan-23 01:31S 36°38' E 174°51'8 7.9
2017-Jan-23 00:30S 36°46' E 174°49'5 4.7
2017-Jan-22 23:27S 36°50' E 174°46'0 0.0
2017-Jan-22 22:28S 36°50' E 174°46'0 0.0
2017-Jan-22 11:20S 36°51' E 174°46'0 0.0
2017-Jan-22 10:26S 36°51' E 174°46'0 0.0
2017-Jan-22 02:27S 36°51' E 174°46'2 2.2
2017-Jan-22 01:33S 36°50' E 174°48'6 1.2
2017-Jan-21 20:23S 36°51' E 174°56'4 0.2
2017-Jan-21 03:06S 36°48' E 174°57'5 7.8
2017-Jan-21 02:31S 36°43' E 174°56'8 7.8
2017-Jan-21 01:33S 36°36' E 174°52'7 6.9
2017-Jan-21 00:33S 36°31' E 174°46'6 6.2
2017-Jan-20 23:32S 36°25' E 174°49'0 0.0
2017-Jan-20 21:26S 36°25' E 174°49'0 0.0
2017-Jan-20 20:33S 36°25' E 174°49'1 1.3
2017-Jan-20 19:34S 36°26' E 174°47'1 0.1
2017-Jan-20 04:23S 36°25' E 174°46'1 0.6
2017-Jan-20 03:27S 36°25' E 174°47'5 5.0
2017-Jan-20 02:34S 36°30' E 174°47'2 1.9
2017-Jan-20 01:34S 36°31' E 174°45'1 0.9
2017-Jan-20 00:29S 36°31' E 174°44'0 0.0
2017-Jan-19 23:29S 36°31' E 174°44'0 0.0
2017-Jan-19 22:29S 36°31' E 174°44'0 0.0
2017-Jan-19 21:29S 36°31' E 174°44'0 0.0
2017-Jan-19 20:23S 36°31' E 174°44'0 0.0
2017-Jan-19 19:29S 36°31' E 174°44'0 0.0
2017-Jan-19 18:29S 36°31' E 174°44'0 0.0
2017-Jan-19 17:29S 36°31' E 174°44'0 0.0
2017-Jan-19 16:29S 36°31' E 174°44'0 0.0
2017-Jan-19 15:29S 36°31' E 174°44'0 0.0
2017-Jan-19 14:29S 36°31' E 174°44'0 0.0
2017-Jan-19 13:29S 36°31' E 174°44'0 0.0
2017-Jan-19 12:29S 36°31' E 174°44'0 0.0
2017-Jan-19 11:29S 36°31' E 174°44'0 0.0
2017-Jan-19 10:29S 36°31' E 174°44'0 0.0
2017-Jan-19 09:29S 36°31' E 174°44'0 0.0
2017-Jan-19 08:29S 36°31' E 174°44'0 0.0
2017-Jan-19 07:29S 36°31' E 174°44'0 0.1
2017-Jan-19 06:29S 36°31' E 174°44'0 0.0
2017-Jan-19 05:29S 36°31' E 174°44'0 0.0
2017-Jan-19 04:29S 36°31' E 174°44'0 0.0
2017-Jan-19 03:29S 36°31' E 174°44'0 0.0
2017-Jan-19 02:29S 36°31' E 174°44'5 4.8
2017-Jan-19 01:32S 36°32' E 174°50'4 4.1
2017-Jan-19 00:33S 36°34' E 174°54'4 4.4
2017-Jan-18 23:33S 36°29' E 174°52'6 5.6
2017-Jan-18 22:33S 36°26' E 174°47'1 0.0
2017-Jan-18 04:18S 36°26' E 174°47'5 6.6
2017-Jan-18 03:33S 36°31' E 174°47'4 3.9
2017-Jan-18 02:34S 36°34' E 174°50'14 6.4
2017-Jan-18 00:22S 36°48' E 174°49'3 3.0
2017-Jan-17 23:30S 36°50' E 174°48'1 0.2
2017-Jan-17 17:21S 36°50' E 174°47'1 0.8
2017-Jan-17 15:30S 36°51' E 174°48'0 0.0
2017-Jan-17 13:18S 36°51' E 174°48'0 0.0
2017-Jan-17 05:27S 36°51' E 174°48'9 1.5
2017-Jan-16 23:30S 36°45' E 174°57'7 7.6
2017-Jan-16 22:33S 36°38' E 174°53'5 5.2
2017-Jan-16 21:33S 36°34' E 174°50'5 5.2
2017-Jan-16 20:33S 36°31' E 174°44'1 0.4
2017-Jan-16 18:30S 36°30' E 174°44'0 0.0
2017-Jan-16 17:30S 36°30' E 174°44'0 0.0
2017-Jan-16 11:30S 36°30' E 174°44'0 0.0
2017-Jan-16 10:30S 36°30' E 174°44'0 0.0
2017-Jan-16 09:30S 36°30' E 174°44'0 0.0
2017-Jan-16 08:18S 36°30' E 174°44'0 0.0
2017-Jan-16 07:24S 36°30' E 174°44'0 0.0
2017-Jan-16 06:30S 36°30' E 174°44'0 0.0
2017-Jan-16 05:24S 36°30' E 174°44'4 4.4
2017-Jan-16 04:33S 36°29' E 174°48'3 2.9
2017-Jan-16 03:33S 36°27' E 174°48'1 0.9
2017-Jan-16 02:16S 36°26' E 174°47'1 0.7
2017-Jan-16 00:16S 36°24' E 174°46'0 0.0
2017-Jan-15 21:22S 36°24' E 174°46'0 0.0
2017-Jan-15 00:33S 36°24' E 174°46'6 6.0
2017-Jan-14 23:33S 36°22' E 174°53'13 6.4
2017-Jan-14 21:26S 36°10' E 174°46'  
Track history (hours):
 
Tides and Currents Weather Stations Pressure Air Temp Water Temp Dewpoint Dewpoint Depression Visibility Wind Speed Wind Dir Waves Ship Positions

Spirit of New Zealand

Last reported at 2017-Jan-24 18:32 UTC. Time now 2017-Jan-24 19:23 UTC.
Position S 36°30' E 174°44'.

Length 45 m; draft 4.1 m.

Type: Passenger vessel. MMSI: 512201000.

Date/timePositionNaut miles runAvg speedWind from/ knotsBaromVisibWave heightAir tempDewpointWater temp
2017-Jan-24 18:32S 36°30' E 174°44'0 0.0
2017-Jan-24 17:26S 36°30' E 174°44'0 0.0
2017-Jan-24 16:26S 36°30' E 174°44'0 0.0
2017-Jan-24 15:32S 36°30' E 174°44'0 0.0
2017-Jan-24 14:20S 36°30' E 174°44'0 0.0
2017-Jan-24 13:32S 36°30' E 174°44'0 0.0
2017-Jan-24 12:32S 36°30' E 174°44'0 0.0
2017-Jan-24 06:20S 36°30' E 174°44'0 0.0
2017-Jan-24 05:20S 36°30' E 174°44'0 0.1
2017-Jan-24 04:32S 36°30' E 174°44'0 0.0
2017-Jan-24 03:32S 36°30' E 174°44'0 0.0
2017-Jan-24 02:32S 36°30' E 174°44'0 0.0
2017-Jan-24 01:26S 36°30' E 174°44'0 0.1
2017-Jan-24 00:33S 36°30' E 174°44'3 3.0
2017-Jan-23 23:33S 36°29' E 174°47'1 1.0
2017-Jan-23 22:33S 36°29' E 174°46'3 0.2
2017-Jan-23 03:17S 36°26' E 174°47'4 5.8
2017-Jan-23 02:33S 36°30' E 174°49'8 7.5
2017-Jan-23 01:31S 36°38' E 174°51'8 7.9
2017-Jan-23 00:30S 36°46' E 174°49'5 4.7
2017-Jan-22 23:27S 36°50' E 174°46'0 0.0
2017-Jan-22 22:28S 36°50' E 174°46'0 0.0
2017-Jan-22 11:20S 36°51' E 174°46'0 0.0
2017-Jan-22 10:26S 36°51' E 174°46'0 0.0
2017-Jan-22 02:27S 36°51' E 174°46'2 2.2
2017-Jan-22 01:33S 36°50' E 174°48'6 1.2
2017-Jan-21 20:23S 36°51' E 174°56'4 0.2
2017-Jan-21 03:06S 36°48' E 174°57'5 7.8
2017-Jan-21 02:31S 36°43' E 174°56'8 7.8
2017-Jan-21 01:33S 36°36' E 174°52'7 6.9
2017-Jan-21 00:33S 36°31' E 174°46'6 6.2
2017-Jan-20 23:32S 36°25' E 174°49'0 0.0
2017-Jan-20 21:26S 36°25' E 174°49'0 0.0
2017-Jan-20 20:33S 36°25' E 174°49'1 1.3
2017-Jan-20 19:34S 36°26' E 174°47'1 0.1
2017-Jan-20 04:23S 36°25' E 174°46'1 0.6
2017-Jan-20 03:27S 36°25' E 174°47'5 5.0
2017-Jan-20 02:34S 36°30' E 174°47'2 1.9
2017-Jan-20 01:34S 36°31' E 174°45'1 0.9
2017-Jan-20 00:29S 36°31' E 174°44'0 0.0
2017-Jan-19 23:29S 36°31' E 174°44'0 0.0
2017-Jan-19 22:29S 36°31' E 174°44'0 0.0
2017-Jan-19 21:29S 36°31' E 174°44'0 0.0
2017-Jan-19 20:23S 36°31' E 174°44'0 0.0
2017-Jan-19 19:29S 36°31' E 174°44'0 0.0
2017-Jan-19 18:29S 36°31' E 174°44'0 0.0
2017-Jan-19 17:29S 36°31' E 174°44'0 0.0
2017-Jan-19 16:29S 36°31' E 174°44'0 0.0
2017-Jan-19 15:29S 36°31' E 174°44'0 0.0
2017-Jan-19 14:29S 36°31' E 174°44'0 0.0
2017-Jan-19 13:29S 36°31' E 174°44'0 0.0
2017-Jan-19 12:29S 36°31' E 174°44'0 0.0
2017-Jan-19 11:29S 36°31' E 174°44'0 0.0
2017-Jan-19 10:29S 36°31' E 174°44'0 0.0
2017-Jan-19 09:29S 36°31' E 174°44'0 0.0
2017-Jan-19 08:29S 36°31' E 174°44'0 0.0
2017-Jan-19 07:29S 36°31' E 174°44'0 0.1
2017-Jan-19 06:29S 36°31' E 174°44'0 0.0
2017-Jan-19 05:29S 36°31' E 174°44'0 0.0
2017-Jan-19 04:29S 36°31' E 174°44'0 0.0
2017-Jan-19 03:29S 36°31' E 174°44'0 0.0
2017-Jan-19 02:29S 36°31' E 174°44'5 4.8
2017-Jan-19 01:32S 36°32' E 174°50'4 4.1
2017-Jan-19 00:33S 36°34' E 174°54'4 4.4
2017-Jan-18 23:33S 36°29' E 174°52'6 5.6
2017-Jan-18 22:33S 36°26' E 174°47'1 0.0
2017-Jan-18 04:18S 36°26' E 174°47'5 6.6
2017-Jan-18 03:33S 36°31' E 174°47'4 3.9
2017-Jan-18 02:34S 36°34' E 174°50'14 6.4
2017-Jan-18 00:22S 36°48' E 174°49'3 3.0
2017-Jan-17 23:30S 36°50' E 174°48'1 0.2
2017-Jan-17 17:21S 36°50' E 174°47'1 0.8
2017-Jan-17 15:30S 36°51' E 174°48'0 0.0
2017-Jan-17 13:18S 36°51' E 174°48'0 0.0
2017-Jan-17 05:27S 36°51' E 174°48'9 1.5
2017-Jan-16 23:30S 36°45' E 174°57'7 7.6
2017-Jan-16 22:33S 36°38' E 174°53'5 5.2
2017-Jan-16 21:33S 36°34' E 174°50'5 5.2
2017-Jan-16 20:33S 36°31' E 174°44'1 0.4
2017-Jan-16 18:30S 36°30' E 174°44'0 0.0
2017-Jan-16 17:30S 36°30' E 174°44'0 0.0
2017-Jan-16 11:30S 36°30' E 174°44'0 0.0
2017-Jan-16 10:30S 36°30' E 174°44'0 0.0
2017-Jan-16 09:30S 36°30' E 174°44'0 0.0
2017-Jan-16 08:18S 36°30' E 174°44'0 0.0
2017-Jan-16 07:24S 36°30' E 174°44'0 0.0
2017-Jan-16 06:30S 36°30' E 174°44'0 0.0
2017-Jan-16 05:24S 36°30' E 174°44'4 4.4
2017-Jan-16 04:33S 36°29' E 174°48'3 2.9
2017-Jan-16 03:33S 36°27' E 174°48'1 0.9
2017-Jan-16 02:16S 36°26' E 174°47'1 0.7
2017-Jan-16 00:16S 36°24' E 174°46'0 0.0
2017-Jan-15 21:22S 36°24' E 174°46'0 0.0
2017-Jan-15 00:33S 36°24' E 174°46'6 6.0
2017-Jan-14 23:33S 36°22' E 174°53'13 6.4
2017-Jan-14 21:26S 36°10' E 174°46'  

Dump ship's entire track history